Flight Track Log - Related Links

Times and Time Zones

All times are in EDT time to prevent confusion due to time zone crossing. See the N210PM flight status page for this flight to view local times or setup timezone preferences in your user account.

Time Position Orientation Groundspeed Altitude Reporting Facility
EDT Latitude Longitude Course Direction KTS MPH feet Rate Location/Type
Sun 05:44:06 PM 46.5167 -84.5667 309° West 170 196 5,300  Level Toronto Center
Sun 05:45:06 PM 46.5500 -84.5333 35° Northeast 190 219 7,600 2,200 Climbing Toronto Center
Sun 05:46:06 PM 46.6000 -84.4833 34° Northeast 200 230 9,700 2,100 Climbing Toronto Center
Sun 05:47:06 PM 46.6333 -84.4167 54° Northeast 210 242 11,800 2,050 Climbing Toronto Center
Sun 05:48:06 PM 46.6833 -84.3667 34° Northeast 210 242 13,800 1,950 Climbing Toronto Center
Sun 05:49:06 PM 46.7333 -84.3333 25° Northeast 220 253 15,700 1,850 Climbing Toronto Center
Sun 05:50:06 PM 46.7833 -84.2833 34° Northeast 220 253 17,500 1,900 Climbing Toronto Center
Sun 05:51:06 PM 46.8667 -84.2333 22° Northeast 230 265 19,500 1,750 Climbing Toronto Center
Sun 05:52:06 PM 46.9167 -84.2000 24° Northeast 230 265 21,000 750 Climbing Toronto Center
Sun 05:53:06 PM 46.9833 -84.1500 27° Northeast 280 322 21,000  Level Toronto Center
Sun 05:54:06 PM 47.0667 -84.1167 15° North 310 357 21,000  Level Toronto Center
Sun 05:55:06 PM 47.1500 -84.0500 29° Northeast 330 380 21,000  Level Toronto Center
Sun 05:56:06 PM 47.2333 -84.0000 22° Northeast 330 380 21,000  Level Toronto Center
Sun 05:57:06 PM 47.3167 -83.9333 28° Northeast 340 391 21,000  Level Toronto Center
Sun 05:58:06 PM 47.4000 -83.8667 28° Northeast 340 391 21,000  Level Toronto Center
Sun 05:59:06 PM 47.4833 -83.8333 15° North 340 391 21,000  Level Toronto Center
Sun 06:00:06 PM 47.5833 -83.7833 19° North 340 391 21,000  Level Toronto Center
Sun 06:01:06 PM 47.6667 -83.7167 28° Northeast 340 391 21,000  Level Toronto Center
Sun 06:02:06 PM 47.7500 -83.6500 28° Northeast 340 391 21,000  Level Toronto Center
Sun 06:03:06 PM 47.8000 -83.5333 57° Northeast 350 403 21,000  Level Toronto Center
Sun 06:04:06 PM 47.8333 -83.4000 70° East 360 414 21,000  Level Toronto Center
Sun 06:05:06 PM 47.9000 -83.2667 53° Northeast 360 414 21,000  Level Toronto Center
Sun 06:06:06 PM 47.9333 -83.1333 69° East 360 414 21,000  Level Toronto Center
Sun 06:07:06 PM 47.9833 -83.0167 57° Northeast 360 414 21,000  Level Toronto Center
Sun 06:08:06 PM 48.0333 -82.8667 63° Northeast 360 414 21,000  Level Toronto Center
Sun 06:09:06 PM 48.0667 -82.7500 67° East 360 414 21,000  Level Toronto Center
Sun 06:10:06 PM 48.1333 -82.6000 56° Northeast 360 414 21,000  Level Toronto Center
Sun 06:11:06 PM 48.1667 -82.4833 67° East 360 414 21,000  Level Toronto Center
Sun 06:12:06 PM 48.2167 -82.3500 61° Northeast 360 414 21,000  Level Toronto Center
Sun 06:13:06 PM 48.2667 -82.2167 61° Northeast 360 414 21,000  Level Toronto Center
Sun 06:14:06 PM 48.3000 -82.0833 69° East 360 414 21,000  Level Toronto Center
Sun 06:15:06 PM 48.3667 -81.9667 49° Northeast 360 414 21,000 -600 Level Toronto Center
Sun 06:16:06 PM 48.4167 -81.8167 63° Northeast 360 414 19,800 -1,350 Descending Toronto Center
Sun 06:17:06 PM 48.4500 -81.6833 69° East 330 380 18,300 -1,650 Descending Toronto Center
Sun 06:18:06 PM 48.4833 -81.5667 67° East 330 380 16,500 -1,850 Descending Toronto Center
Sun 06:19:06 PM 48.5333 -81.4500 57° Northeast 330 380 14,600 -1,750 Descending Toronto Center
Sun 06:20:06 PM 48.5833 -81.3500 53° Northeast 320 368 13,000 -1,600 Descending Toronto Center
Sun 06:21:06 PM 48.6500 -81.3000 26° Northeast 290 334 11,400 -1,500 Descending Toronto Center
Sun 06:22:06 PM 48.7167 -81.2167 40° Northeast 270 311 10,000 -1,400 Descending Toronto Center
Sun 06:23:06 PM 48.7667 -81.1667 33° Northeast 260 299 8,600 -1,350 Descending Toronto Center
Sun 06:24:06 PM 48.8333 -81.1167 26° Northeast 250 288 7,300 -1,300 Descending Toronto Center
Sun 06:27:00 PM 48.9904 -81.0781 26° Northeast  Level FlightAware Approximate
Sun 06:34:00 PM 49.1000 -81.0000 24° Northeast  Level FlightAware Approximate
Sun 06:35:00 PM 49.1056 -81.0136 24° Northeast  Level Estimated
Sun 06:36:00 PM 49.1056 -81.0136 24° Northeast  Level Estimated
Sun 06:37:00 PM 49.1056 -81.0136 24° Northeast  Level Estimated
Sun 06:38:00 PM 49.1056 -81.0136 24° Northeast  Level Estimated
Sun 06:39:00 PM 49.1056 -81.0136 24° Northeast  Level Estimated
Sun 06:40:00 PM 49.1056 -81.0136 24° Northeast  Level Estimated
Sun 06:41:00 PM 49.1056 -81.0136 24° Northeast  Level Estimated
Sun 06:42:00 PM 49.1056 -81.0136 24° Northeast  Level Estimated
Sun 06:43:00 PM 49.1056 -81.0136 24° Northeast  Level Estimated
Sun 06:44:00 PM 49.1056 -81.0136 24° Northeast  Level Estimated
Sun 06:45:00 PM 49.1056 -81.0136 24° Northeast  Level Estimated

Login

Don't have an account? Register now (free) for customized features, flight alerts, and more!